Taurus — WDF3127 — position and weather

sailwx.info

Track history (hours):
 
Tides and Currents Weather Stations Pressure Air Temp Water Temp Dewpoint Dewpoint Depression Visibility Wind Speed Wind Dir Waves Ship Positions

Taurus

Owner: San Francisco Bay Area Water Emergency Transportation Authority, San Francisco, CA. More information available from US FCC via Universal Licensing System and Coast Guard Vessel Documentation Center.

Last reported at 2014-Oct-01 15:33 UTC. Time now 2014-Oct-01 16:18 UTC.
Position N 37°48' W 122°17'.

Length 35 m.

Type: Passenger vessel. MMSI: 367436230.

Date/timePositionNaut miles runAvg speedWind from/ knotsBaromVisibWave heightAir tempDewpointWater temp
2014-Oct-01 15:33N 37°48' W 122°17'0 0.0
2014-Oct-01 14:34N 37°48' W 122°17'0 0.2
2014-Oct-01 13:33N 37°48' W 122°17'6 6.0
2014-Oct-01 12:33N 37°49' W 122°25'0 0.0
2014-Oct-01 04:24N 37°49' W 122°25'3 3.6
2014-Oct-01 03:34N 37°48' W 122°21'2 1.9
2014-Oct-01 02:29N 37°48' W 122°24'0 0.3
2014-Oct-01 01:33N 37°48' W 122°24'1 1.1
2014-Oct-01 00:34N 37°49' W 122°23'1 0.7
2014-Sep-30 23:34N 37°50' W 122°24'1 1.2
2014-Sep-30 22:32N 37°49' W 122°25'6 6.3
2014-Sep-30 21:32N 37°48' W 122°17'6 6.3
2014-Sep-30 20:32N 37°49' W 122°25'0 0.0
2014-Sep-30 19:32N 37°49' W 122°25'0 0.0
2014-Sep-30 18:32N 37°49' W 122°25'0 0.0
2014-Sep-30 17:32N 37°49' W 122°25'0 0.0
2014-Sep-30 16:32N 37°49' W 122°25'6 6.5
2014-Sep-30 15:33N 37°48' W 122°17'0 0.0
2014-Sep-30 14:33N 37°48' W 122°17'0 0.1
2014-Sep-30 13:34N 37°48' W 122°17'6 6.1
2014-Sep-30 12:32N 37°49' W 122°25'0 0.0
2014-Sep-30 04:26N 37°49' W 122°25'3 3.6
2014-Sep-30 03:33N 37°48' W 122°21'2 2.2
2014-Sep-30 02:33N 37°48' W 122°24'0 0.1
2014-Sep-30 01:33N 37°48' W 122°24'2 1.8
2014-Sep-30 00:33N 37°50' W 122°24'1 0.6
2014-Sep-29 23:33N 37°49' W 122°24'1 0.9
2014-Sep-29 22:33N 37°49' W 122°25'6 6.2
2014-Sep-29 21:32N 37°48' W 122°17'6 6.3
2014-Sep-29 20:31N 37°49' W 122°25'0 0.0
2014-Sep-29 19:31N 37°49' W 122°25'0 0.0
2014-Sep-29 18:31N 37°49' W 122°25'0 0.0
2014-Sep-29 17:31N 37°49' W 122°25'0 0.0
2014-Sep-29 16:31N 37°49' W 122°25'6 6.6
2014-Sep-29 15:33N 37°48' W 122°17'0 0.0
2014-Sep-29 14:33N 37°48' W 122°17'0 0.2
2014-Sep-29 13:33N 37°48' W 122°17'6 6.1
2014-Sep-29 12:33N 37°49' W 122°25'0 0.0
2014-Sep-29 02:34N 37°49' W 122°25'1 1.4
2014-Sep-29 01:33N 37°48' W 122°23'4 4.1
2014-Sep-29 00:33N 37°48' W 122°18'5 5.3
2014-Sep-28 23:34N 37°49' W 122°25'6 5.8
2014-Sep-28 22:34N 37°48' W 122°18'6 5.7
2014-Sep-28 21:33N 37°49' W 122°25'6 6.1
2014-Sep-28 20:33N 37°48' W 122°17'6 6.0
2014-Sep-28 19:33N 37°49' W 122°25'6 6.3
2014-Sep-28 18:34N 37°48' W 122°17'6 6.4
2014-Sep-28 17:33N 37°49' W 122°25'0 0.0
2014-Sep-28 02:34N 37°49' W 122°25'1 1.3
2014-Sep-28 01:33N 37°48' W 122°23'4 3.9
2014-Sep-28 00:34N 37°48' W 122°18'5 5.1
2014-Sep-27 23:33N 37°49' W 122°25'6 6.3
2014-Sep-27 22:33N 37°48' W 122°17'6 6.3
2014-Sep-27 21:34N 37°49' W 122°25'6 6.4
2014-Sep-27 20:33N 37°48' W 122°17'6 6.3
2014-Sep-27 19:33N 37°49' W 122°25'6 5.9
2014-Sep-27 18:34N 37°48' W 122°17'6 6.0
2014-Sep-27 17:34N 37°49' W 122°25'0 0.0
2014-Sep-27 03:25N 37°49' W 122°25'1 1.4
2014-Sep-27 02:34N 37°48' W 122°24'0 0.3
2014-Sep-27 01:34N 37°48' W 122°23'0 0.1
2014-Sep-27 00:34N 37°48' W 122°24'0 0.1
2014-Sep-26 23:34N 37°48' W 122°24'1 1.0
2014-Sep-26 22:33N 37°49' W 122°25'0 0.0
2014-Sep-26 21:33N 37°49' W 122°25'6 6.3
2014-Sep-26 20:33N 37°48' W 122°17'6 6.1
2014-Sep-26 19:31N 37°49' W 122°25'0 0.0
2014-Sep-26 18:31N 37°49' W 122°25'0 0.0
2014-Sep-26 17:31N 37°49' W 122°25'0 0.0
2014-Sep-26 16:31N 37°49' W 122°25'6 6.6
2014-Sep-26 15:33N 37°48' W 122°17'0 0.0
2014-Sep-26 14:33N 37°48' W 122°17'0 0.2
2014-Sep-26 13:33N 37°48' W 122°17'6 6.1
2014-Sep-26 12:33N 37°49' W 122°25'0 0.0
2014-Sep-26 03:18N 37°49' W 122°25'1 1.6
2014-Sep-26 02:33N 37°48' W 122°24'0 0.1
2014-Sep-26 01:34N 37°48' W 122°24'2 1.9
2014-Sep-26 00:34N 37°49' W 122°25'0 0.3
2014-Sep-25 23:34N 37°50' W 122°25'1 1.1
2014-Sep-25 22:33N 37°49' W 122°25'6 6.3
2014-Sep-25 21:33N 37°48' W 122°17'6 6.2
2014-Sep-25 20:32N 37°49' W 122°25'0 0.0
2014-Sep-25 19:32N 37°49' W 122°25'0 0.0
2014-Sep-25 18:32N 37°49' W 122°25'0 0.0
2014-Sep-25 17:32N 37°49' W 122°25'0 0.0
2014-Sep-25 16:32N 37°49' W 122°25'6 6.5
2014-Sep-25 15:33N 37°48' W 122°17'0 0.0
2014-Sep-25 14:33N 37°48' W 122°17'0 0.1
2014-Sep-25 13:33N 37°48' W 122°17'6 6.3
2014-Sep-25 12:33N 37°49' W 122°25'0 0.0
2014-Sep-25 04:33N 37°49' W 122°25'3 2.9
2014-Sep-25 03:34N 37°48' W 122°21'2 1.9
2014-Sep-25 02:33N 37°48' W 122°24'0 0.0
2014-Sep-25 01:34N 37°48' W 122°24'2 1.9
2014-Sep-25 00:34N 37°50' W 122°24'0 0.4
2014-Sep-24 23:34N 37°50' W 122°24'1 1.4
2014-Sep-24 22:34N 37°49' W 122°25'6 6.4
2014-Sep-24 21:33N 37°48' W 122°17'6 6.3
2014-Sep-24 20:33N 37°49' W 122°25'0 0.0
2014-Sep-24 19:33N 37°49' W 122°25'0 0.0
2014-Sep-24 18:30N 37°49' W 122°25'0 0.0
2014-Sep-24 17:33N 37°49' W 122°25'0 0.0
2014-Sep-24 16:33N 37°49' W 122°25'6 6.4
2014-Sep-24 15:33N 37°48' W 122°17'0 0.1
2014-Sep-24 14:33N 37°48' W 122°17'0 0.1
2014-Sep-24 13:33N 37°48' W 122°17'6 6.2
2014-Sep-24 12:33N 37°49' W 122°25'0 0.0
2014-Sep-24 04:33N 37°49' W 122°25'3 3.0
2014-Sep-24 03:34N 37°48' W 122°21'3 2.6
2014-Sep-24 02:34N 37°49' W 122°24'1 0.8
2014-Sep-24 01:33N 37°48' W 122°23'2 1.9
2014-Sep-24 00:33N 37°50' W 122°24'0 0.2
2014-Sep-23 23:33N 37°50' W 122°24'1 1.4
2014-Sep-23 22:32N 37°49' W 122°25'6 6.5
2014-Sep-23 21:33N 37°48' W 122°17'6 6.1
2014-Sep-23 20:32N 37°49' W 122°25'0 0.0
2014-Sep-23 19:32N 37°49' W 122°25'0 0.0
2014-Sep-23 18:32N 37°49' W 122°25'0 0.0
2014-Sep-23 17:32N 37°49' W 122°25'0 0.0
2014-Sep-23 16:33N 37°49' W 122°25'6 6.4
2014-Sep-23 15:34N 37°48' W 122°17'0 0.0
2014-Sep-23 14:34N 37°48' W 122°17'0 0.3
2014-Sep-23 13:33N 37°48' W 122°17'6 6.0
2014-Sep-23 12:33N 37°49' W 122°25'0 0.0
2014-Sep-23 04:30N 37°49' W 122°25'3 3.2
2014-Sep-23 03:34N 37°48' W 122°21'2 1.9
2014-Sep-23 02:34N 37°48' W 122°24'0 0.1
2014-Sep-23 01:33N 37°48' W 122°23'2 1.6
2014-Sep-23 00:33N 37°49' W 122°24'0 0.5
2014-Sep-22 23:34N 37°49' W 122°24'1 0.6
2014-Sep-22 22:33N 37°49' W 122°25'6 6.3
2014-Sep-22 21:33N 37°48' W 122°17'6 6.3
2014-Sep-22 20:34N 37°49' W 122°25'0 0.0
2014-Sep-22 19:34N 37°49' W 122°25'0 0.0
2014-Sep-22 18:34N 37°49' W 122°25'0 0.0
2014-Sep-22 17:34N 37°49' W 122°25'0 0.0
2014-Sep-22 16:34N 37°49' W 122°25'6 6.4
2014-Sep-22 15:34N 37°48' W 122°17'0 0.0
2014-Sep-22 14:33N 37°48' W 122°17'0 0.2
2014-Sep-22 13:34N 37°48' W 122°17'6 6.2
2014-Sep-22 12:33N 37°49' W 122°25'0 0.0
2014-Sep-22 05:07N 37°49' W 122°25'0 0.0
2014-Sep-22 04:33N 37°49' W 122°25'0 0.0
2014-Sep-22 03:33N 37°49' W 122°25'0 0.0
2014-Sep-22 02:33N 37°49' W 122°25'0 0.0
2014-Sep-22 01:33N 37°49' W 122°25'0 0.0
2014-Sep-22 00:33N 37°49' W 122°25'0 0.0
2014-Sep-21 23:33N 37°49' W 122°25'0 0.0
2014-Sep-21 22:33N 37°49' W 122°25'0 0.0
2014-Sep-21 21:33N 37°49' W 122°25'6 6.3
2014-Sep-21 20:33N 37°48' W 122°17'6 6.3
2014-Sep-21 19:33N 37°49' W 122°25'6 5.6
2014-Sep-21 18:34N 37°48' W 122°18'6 5.7
2014-Sep-21 17:33N 37°49' W 122°25'  
Track history (hours):
 
Tides and Currents Weather Stations Pressure Air Temp Water Temp Dewpoint Dewpoint Depression Visibility Wind Speed Wind Dir Waves Ship Positions

Taurus

Owner: San Francisco Bay Area Water Emergency Transportation Authority, San Francisco, CA. More information available from US FCC via Universal Licensing System and Coast Guard Vessel Documentation Center.

Last reported at 2014-Oct-01 15:33 UTC. Time now 2014-Oct-01 16:18 UTC.
Position N 37°48' W 122°17'.

Length 35 m.

Type: Passenger vessel. MMSI: 367436230.

Date/timePositionNaut miles runAvg speedWind from/ knotsBaromVisibWave heightAir tempDewpointWater temp
2014-Oct-01 15:33N 37°48' W 122°17'0 0.0
2014-Oct-01 14:34N 37°48' W 122°17'0 0.2
2014-Oct-01 13:33N 37°48' W 122°17'6 6.0
2014-Oct-01 12:33N 37°49' W 122°25'0 0.0
2014-Oct-01 04:24N 37°49' W 122°25'3 3.6
2014-Oct-01 03:34N 37°48' W 122°21'2 1.9
2014-Oct-01 02:29N 37°48' W 122°24'0 0.3
2014-Oct-01 01:33N 37°48' W 122°24'1 1.1
2014-Oct-01 00:34N 37°49' W 122°23'1 0.7
2014-Sep-30 23:34N 37°50' W 122°24'1 1.2
2014-Sep-30 22:32N 37°49' W 122°25'6 6.3
2014-Sep-30 21:32N 37°48' W 122°17'6 6.3
2014-Sep-30 20:32N 37°49' W 122°25'0 0.0
2014-Sep-30 19:32N 37°49' W 122°25'0 0.0
2014-Sep-30 18:32N 37°49' W 122°25'0 0.0
2014-Sep-30 17:32N 37°49' W 122°25'0 0.0
2014-Sep-30 16:32N 37°49' W 122°25'6 6.5
2014-Sep-30 15:33N 37°48' W 122°17'0 0.0
2014-Sep-30 14:33N 37°48' W 122°17'0 0.1
2014-Sep-30 13:34N 37°48' W 122°17'6 6.1
2014-Sep-30 12:32N 37°49' W 122°25'0 0.0
2014-Sep-30 04:26N 37°49' W 122°25'3 3.6
2014-Sep-30 03:33N 37°48' W 122°21'2 2.2
2014-Sep-30 02:33N 37°48' W 122°24'0 0.1
2014-Sep-30 01:33N 37°48' W 122°24'2 1.8
2014-Sep-30 00:33N 37°50' W 122°24'1 0.6
2014-Sep-29 23:33N 37°49' W 122°24'1 0.9
2014-Sep-29 22:33N 37°49' W 122°25'6 6.2
2014-Sep-29 21:32N 37°48' W 122°17'6 6.3
2014-Sep-29 20:31N 37°49' W 122°25'0 0.0
2014-Sep-29 19:31N 37°49' W 122°25'0 0.0
2014-Sep-29 18:31N 37°49' W 122°25'0 0.0
2014-Sep-29 17:31N 37°49' W 122°25'0 0.0
2014-Sep-29 16:31N 37°49' W 122°25'6 6.6
2014-Sep-29 15:33N 37°48' W 122°17'0 0.0
2014-Sep-29 14:33N 37°48' W 122°17'0 0.2
2014-Sep-29 13:33N 37°48' W 122°17'6 6.1
2014-Sep-29 12:33N 37°49' W 122°25'0 0.0
2014-Sep-29 02:34N 37°49' W 122°25'1 1.4
2014-Sep-29 01:33N 37°48' W 122°23'4 4.1
2014-Sep-29 00:33N 37°48' W 122°18'5 5.3
2014-Sep-28 23:34N 37°49' W 122°25'6 5.8
2014-Sep-28 22:34N 37°48' W 122°18'6 5.7
2014-Sep-28 21:33N 37°49' W 122°25'6 6.1
2014-Sep-28 20:33N 37°48' W 122°17'6 6.0
2014-Sep-28 19:33N 37°49' W 122°25'6 6.3
2014-Sep-28 18:34N 37°48' W 122°17'6 6.4
2014-Sep-28 17:33N 37°49' W 122°25'0 0.0
2014-Sep-28 02:34N 37°49' W 122°25'1 1.3
2014-Sep-28 01:33N 37°48' W 122°23'4 3.9
2014-Sep-28 00:34N 37°48' W 122°18'5 5.1
2014-Sep-27 23:33N 37°49' W 122°25'6 6.3
2014-Sep-27 22:33N 37°48' W 122°17'6 6.3
2014-Sep-27 21:34N 37°49' W 122°25'6 6.4
2014-Sep-27 20:33N 37°48' W 122°17'6 6.3
2014-Sep-27 19:33N 37°49' W 122°25'6 5.9
2014-Sep-27 18:34N 37°48' W 122°17'6 6.0
2014-Sep-27 17:34N 37°49' W 122°25'0 0.0
2014-Sep-27 03:25N 37°49' W 122°25'1 1.4
2014-Sep-27 02:34N 37°48' W 122°24'0 0.3
2014-Sep-27 01:34N 37°48' W 122°23'0 0.1
2014-Sep-27 00:34N 37°48' W 122°24'0 0.1
2014-Sep-26 23:34N 37°48' W 122°24'1 1.0
2014-Sep-26 22:33N 37°49' W 122°25'0 0.0
2014-Sep-26 21:33N 37°49' W 122°25'6 6.3
2014-Sep-26 20:33N 37°48' W 122°17'6 6.1
2014-Sep-26 19:31N 37°49' W 122°25'0 0.0
2014-Sep-26 18:31N 37°49' W 122°25'0 0.0
2014-Sep-26 17:31N 37°49' W 122°25'0 0.0
2014-Sep-26 16:31N 37°49' W 122°25'6 6.6
2014-Sep-26 15:33N 37°48' W 122°17'0 0.0
2014-Sep-26 14:33N 37°48' W 122°17'0 0.2
2014-Sep-26 13:33N 37°48' W 122°17'6 6.1
2014-Sep-26 12:33N 37°49' W 122°25'0 0.0
2014-Sep-26 03:18N 37°49' W 122°25'1 1.6
2014-Sep-26 02:33N 37°48' W 122°24'0 0.1
2014-Sep-26 01:34N 37°48' W 122°24'2 1.9
2014-Sep-26 00:34N 37°49' W 122°25'0 0.3
2014-Sep-25 23:34N 37°50' W 122°25'1 1.1
2014-Sep-25 22:33N 37°49' W 122°25'6 6.3
2014-Sep-25 21:33N 37°48' W 122°17'6 6.2
2014-Sep-25 20:32N 37°49' W 122°25'0 0.0
2014-Sep-25 19:32N 37°49' W 122°25'0 0.0
2014-Sep-25 18:32N 37°49' W 122°25'0 0.0
2014-Sep-25 17:32N 37°49' W 122°25'0 0.0
2014-Sep-25 16:32N 37°49' W 122°25'6 6.5
2014-Sep-25 15:33N 37°48' W 122°17'0 0.0
2014-Sep-25 14:33N 37°48' W 122°17'0 0.1
2014-Sep-25 13:33N 37°48' W 122°17'6 6.3
2014-Sep-25 12:33N 37°49' W 122°25'0 0.0
2014-Sep-25 04:33N 37°49' W 122°25'3 2.9
2014-Sep-25 03:34N 37°48' W 122°21'2 1.9
2014-Sep-25 02:33N 37°48' W 122°24'0 0.0
2014-Sep-25 01:34N 37°48' W 122°24'2 1.9
2014-Sep-25 00:34N 37°50' W 122°24'0 0.4
2014-Sep-24 23:34N 37°50' W 122°24'1 1.4
2014-Sep-24 22:34N 37°49' W 122°25'6 6.4
2014-Sep-24 21:33N 37°48' W 122°17'6 6.3
2014-Sep-24 20:33N 37°49' W 122°25'0 0.0
2014-Sep-24 19:33N 37°49' W 122°25'0 0.0
2014-Sep-24 18:30N 37°49' W 122°25'0 0.0
2014-Sep-24 17:33N 37°49' W 122°25'0 0.0
2014-Sep-24 16:33N 37°49' W 122°25'6 6.4
2014-Sep-24 15:33N 37°48' W 122°17'0 0.1
2014-Sep-24 14:33N 37°48' W 122°17'0 0.1
2014-Sep-24 13:33N 37°48' W 122°17'6 6.2
2014-Sep-24 12:33N 37°49' W 122°25'0 0.0
2014-Sep-24 04:33N 37°49' W 122°25'3 3.0
2014-Sep-24 03:34N 37°48' W 122°21'3 2.6
2014-Sep-24 02:34N 37°49' W 122°24'1 0.8
2014-Sep-24 01:33N 37°48' W 122°23'2 1.9
2014-Sep-24 00:33N 37°50' W 122°24'0 0.2
2014-Sep-23 23:33N 37°50' W 122°24'1 1.4
2014-Sep-23 22:32N 37°49' W 122°25'6 6.5
2014-Sep-23 21:33N 37°48' W 122°17'6 6.1
2014-Sep-23 20:32N 37°49' W 122°25'0 0.0
2014-Sep-23 19:32N 37°49' W 122°25'0 0.0
2014-Sep-23 18:32N 37°49' W 122°25'0 0.0
2014-Sep-23 17:32N 37°49' W 122°25'0 0.0
2014-Sep-23 16:33N 37°49' W 122°25'6 6.4
2014-Sep-23 15:34N 37°48' W 122°17'0 0.0
2014-Sep-23 14:34N 37°48' W 122°17'0 0.3
2014-Sep-23 13:33N 37°48' W 122°17'6 6.0
2014-Sep-23 12:33N 37°49' W 122°25'0 0.0
2014-Sep-23 04:30N 37°49' W 122°25'3 3.2
2014-Sep-23 03:34N 37°48' W 122°21'2 1.9
2014-Sep-23 02:34N 37°48' W 122°24'0 0.1
2014-Sep-23 01:33N 37°48' W 122°23'2 1.6
2014-Sep-23 00:33N 37°49' W 122°24'0 0.5
2014-Sep-22 23:34N 37°49' W 122°24'1 0.6
2014-Sep-22 22:33N 37°49' W 122°25'6 6.3
2014-Sep-22 21:33N 37°48' W 122°17'6 6.3
2014-Sep-22 20:34N 37°49' W 122°25'0 0.0
2014-Sep-22 19:34N 37°49' W 122°25'0 0.0
2014-Sep-22 18:34N 37°49' W 122°25'0 0.0
2014-Sep-22 17:34N 37°49' W 122°25'0 0.0
2014-Sep-22 16:34N 37°49' W 122°25'6 6.4
2014-Sep-22 15:34N 37°48' W 122°17'0 0.0
2014-Sep-22 14:33N 37°48' W 122°17'0 0.2
2014-Sep-22 13:34N 37°48' W 122°17'6 6.2
2014-Sep-22 12:33N 37°49' W 122°25'0 0.0
2014-Sep-22 05:07N 37°49' W 122°25'0 0.0
2014-Sep-22 04:33N 37°49' W 122°25'0 0.0
2014-Sep-22 03:33N 37°49' W 122°25'0 0.0
2014-Sep-22 02:33N 37°49' W 122°25'0 0.0
2014-Sep-22 01:33N 37°49' W 122°25'0 0.0
2014-Sep-22 00:33N 37°49' W 122°25'0 0.0
2014-Sep-21 23:33N 37°49' W 122°25'0 0.0
2014-Sep-21 22:33N 37°49' W 122°25'0 0.0
2014-Sep-21 21:33N 37°49' W 122°25'6 6.3
2014-Sep-21 20:33N 37°48' W 122°17'6 6.3
2014-Sep-21 19:33N 37°49' W 122°25'6 5.6
2014-Sep-21 18:34N 37°48' W 122°18'6 5.7
2014-Sep-21 17:33N 37°49' W 122°25'  

Dump ship's entire track history